Time;durP1;ratioP1;P1;durP2;ratioP2;P2;SDS_P1;SDS_P2;PMS_P1;PMS_P2;Temp;Humidity;BMP_temperature;BMP_pressure;BME280_temperature;BME280_humidity;BME280_pressure;Samples;Min_cycle;Max_cycle;Signal;HPM_P1;HPM_P2
2022/01/15 00:01:40;;;;;;;96.90;42.95;;;;;;;-0.71;100.00;97644.56;4992327;28;20026;-85
2022/01/15 00:04:06;;;;;;;118.25;52.88;;;;;;;-0.64;100.00;97661.97;5000376;28;20498;-85
2022/01/15 00:06:32;;;;;;;93.70;40.38;;;;;;;-0.61;100.00;97655.78;4967763;28;20037;-84
2022/01/15 00:08:57;;;;;;;96.63;42.08;;;;;;;-0.83;100.00;97654.41;4991025;28;20030;-84
2022/01/15 00:11:23;;;;;;;76.95;36.67;;;;;;;-0.84;100.00;97664.03;4993389;28;20134;-85
2022/01/15 00:13:56;;;;;;;86.05;37.80;;;;;;;-0.72;100.00;97657.72;4960124;28;20027;-85
2022/01/15 00:19:07;;;;;;;82.23;38.53;;;;;;;-0.77;100.00;97663.03;4982585;28;20023;-85
2022/01/15 00:21:33;;;;;;;84.15;36.67;;;;;;;-0.74;100.00;97654.28;4981880;28;20055;-84
2022/01/15 00:23:58;;;;;;;72.80;34.13;;;;;;;-0.76;100.00;97650.78;4962948;28;20053;-85
2022/01/15 00:26:24;;;;;;;86.10;39.03;;;;;;;-0.76;100.00;97670.03;4996484;28;20034;-85
2022/01/15 00:28:50;;;;;;;90.40;39.60;;;;;;;-0.73;100.00;97672.59;4990822;28;20038;-85
2022/01/15 00:31:15;;;;;;;80.80;35.70;;;;;;;-0.71;100.00;97656.84;4967812;28;20022;-84
2022/01/15 00:33:41;;;;;;;78.78;36.83;;;;;;;-0.80;100.00;97676.22;4987936;28;20577;-85
2022/01/15 00:36:06;;;;;;;75.32;32.25;;;;;;;-0.86;100.00;97676.31;4982959;28;20027;-85
2022/01/15 00:38:32;;;;;;;106.28;46.22;;;;;;;-0.74;100.00;97680.53;5002792;28;20022;-85
2022/01/15 00:40:58;;;;;;;92.28;45.20;;;;;;;-0.72;100.00;97687.47;5004587;28;20418;-85
2022/01/15 00:43:23;;;;;;;101.60;45.17;;;;;;;-0.67;100.00;97676.91;4996138;28;20062;-85
2022/01/15 00:45:49;;;;;;;115.00;51.65;;;;;;;-0.64;100.00;97690.84;4982751;28;20113;-85
2022/01/15 00:48:15;;;;;;;144.65;58.13;;;;;;;-0.58;100.00;97692.50;4974564;28;20566;-85
2022/01/15 00:50:41;;;;;;;138.38;59.97;;;;;;;-0.61;100.00;97693.41;4998632;28;20084;-85
2022/01/15 00:53:06;;;;;;;130.45;56.83;;;;;;;-0.60;100.00;97700.41;4966889;28;20061;-85
2022/01/15 00:55:32;;;;;;;107.63;46.50;;;;;;;-0.64;100.00;97700.47;4963049;28;20026;-83
2022/01/15 00:57:58;;;;;;;102.25;47.75;;;;;;;-0.60;100.00;97695.16;4980188;28;20130;-85
2022/01/15 01:00:26;;;;;;;134.18;58.40;;;;;;;-0.68;100.00;97686.53;4994715;28;20137;-85
2022/01/15 01:02:52;;;;;;;118.80;56.90;;;;;;;-0.69;100.00;97694.44;4998660;28;20505;-85
2022/01/15 01:05:18;;;;;;;168.30;70.65;;;;;;;-0.74;100.00;97691.88;4968981;28;20028;-85
2022/01/15 01:07:44;;;;;;;141.73;62.30;;;;;;;-0.81;100.00;97650.88;4970465;28;20030;-86
2022/01/15 01:13:15;;;;;;;166.77;70.25;;;;;;;-0.57;100.00;97683.75;4987605;28;20038;-84
2022/01/15 01:23:34;;;;;;;138.80;61.53;;;;;;;-0.96;100.00;97690.47;5000751;28;20112;-84
2022/01/15 01:26:08;;;;;;;132.15;60.63;;;;;;;-0.98;100.00;97691.38;4968259;28;20049;-85
2022/01/15 01:28:43;;;;;;;122.43;57.33;;;;;;;-1.01;100.00;97687.03;4976742;28;20034;-84
2022/01/15 01:31:23;;;;;;;105.63;48.58;;;;;;;-1.01;100.00;97699.28;4973906;28;20042;-84
2022/01/15 01:33:53;;;;;;;120.30;53.92;;;;;;;-1.13;100.00;97688.09;4995149;28;20033;-85
2022/01/15 01:36:41;;;;;;;107.57;47.67;;;;;;;-1.02;100.00;97694.94;4989911;28;20030;-84
2022/01/15 01:39:13;;;;;;;102.80;47.30;;;;;;;-1.00;100.00;97704.53;4987789;28;20022;-85
2022/01/15 01:41:47;;;;;;;108.15;48.55;;;;;;;-0.89;100.00;97702.59;4969435;28;20486;-86
2022/01/15 01:44:17;;;;;;;117.65;55.00;;;;;;;-0.92;100.00;97691.31;4970021;28;20034;-85
2022/01/15 01:46:52;;;;;;;133.13;58.28;;;;;;;-0.79;100.00;97695.47;4971699;28;20041;-84
2022/01/15 01:49:19;;;;;;;139.50;59.20;;;;;;;-0.65;100.00;97707.50;4999034;28;20058;-85
2022/01/15 01:51:45;;;;;;;128.55;59.03;;;;;;;-0.59;100.00;97699.53;4967125;28;20035;-84
2022/01/15 01:54:12;;;;;;;149.50;64.47;;;;;;;-0.66;100.00;97694.41;4982781;28;20022;-84
2022/01/15 01:56:39;;;;;;;159.55;65.03;;;;;;;-0.63;100.00;97687.34;4984970;28;20479;-84
2022/01/15 01:59:06;;;;;;;158.73;72.40;;;;;;;-0.48;100.00;97688.84;4964766;28;20031;-83
2022/01/15 02:01:31;;;;;;;175.40;75.07;;;;;;;-0.49;100.00;97675.75;5000849;28;20031;-83
2022/01/15 02:03:57;;;;;;;139.73;62.00;;;;;;;-0.33;100.00;97700.84;4971406;28;20037;-84
2022/01/15 02:06:22;;;;;;;142.63;62.00;;;;;;;-0.24;100.00;97690.19;4984936;28;20035;-85
2022/01/15 02:08:49;;;;;;;123.13;56.53;;;;;;;-0.13;100.00;97690.88;4984382;28;20054;-85
2022/01/15 02:11:15;;;;;;;117.10;53.10;;;;;;;-0.07;100.00;97703.91;4994783;28;20522;-85
2022/01/15 02:13:43;;;;;;;115.20;50.03;;;;;;;0.07;100.00;97714.16;4973652;28;20050;-85
2022/01/15 02:16:10;;;;;;;105.88;48.03;;;;;;;0.11;100.00;97721.97;4991153;28;20037;-84
2022/01/15 02:18:36;;;;;;;103.28;46.17;;;;;;;0.18;100.00;97722.75;4983469;28;20545;-85
2022/01/15 02:23:41;;;;;;;103.03;48.20;;;;;;;0.09;100.00;97726.41;4989273;28;20038;-85
2022/01/15 02:26:08;;;;;;;100.55;47.13;;;;;;;0.19;100.00;97730.59;4972969;28;20092;-85
2022/01/15 02:28:38;;;;;;;91.70;45.45;;;;;;;0.26;100.00;97737.47;4964288;28;20525;-85
2022/01/15 02:31:15;;;;;;;98.90;46.58;;;;;;;0.27;100.00;97718.19;4977264;28;20031;-85
2022/01/15 02:33:42;;;;;;;105.45;46.20;;;;;;;0.23;100.00;97742.81;4968826;28;20030;-85
2022/01/15 02:36:11;;;;;;;108.45;48.15;;;;;;;0.43;100.00;97735.38;4979747;28;20033;-84
2022/01/15 02:38:41;;;;;;;101.72;47.00;;;;;;;0.51;100.00;97728.25;4960907;28;20070;-84
2022/01/15 02:41:07;;;;;;;93.70;45.50;;;;;;;0.54;100.00;97728.19;4969019;28;20042;-84
2022/01/15 02:43:33;;;;;;;77.75;36.92;;;;;;;0.62;100.00;97724.50;4992189;28;20038;-85
2022/01/15 02:48:53;;;;;;;85.57;37.60;;;;;;;0.59;100.00;97725.44;4998965;28;20047;-84
2022/01/15 02:51:20;;;;;;;75.60;35.42;;;;;;;0.64;100.00;97738.53;4990597;28;20089;-84
2022/01/15 02:53:50;;;;;;;85.30;40.45;;;;;;;0.70;100.00;97722.59;4974732;28;20034;-85
2022/01/15 02:56:15;;;;;;;89.45;41.15;;;;;;;0.74;100.00;97709.34;5009039;28;20486;-85
2022/01/15 02:58:41;;;;;;;74.10;35.38;;;;;;;0.93;100.00;97729.13;4993938;28;20055;-85
2022/01/15 03:01:06;;;;;;;87.55;41.30;;;;;;;1.02;100.00;97744.72;4976437;28;20508;-85
2022/01/15 03:03:34;;;;;;;96.20;43.70;;;;;;;1.00;100.00;97745.66;4987806;28;20529;-85
2022/01/15 03:06:13;;;;;;;85.60;40.90;;;;;;;1.07;100.00;97740.25;4985269;28;20149;-85
2022/01/15 03:08:43;;;;;;;85.78;40.28;;;;;;;1.20;100.00;97748.72;4966702;28;20121;-85
2022/01/15 03:11:10;;;;;;;90.53;42.75;;;;;;;1.29;100.00;97759.06;4998396;28;20106;-85
2022/01/15 03:13:37;;;;;;;102.25;47.10;;;;;;;1.33;100.00;97742.28;4967275;28;20395;-84
2022/01/15 03:16:03;;;;;;;128.38;59.35;;;;;;;1.43;100.00;97759.63;4985010;28;20104;-85
2022/01/15 03:18:36;;;;;;;111.97;53.83;;;;;;;1.53;100.00;97761.16;5005612;28;20057;-85
2022/01/15 03:21:01;;;;;;;114.55;53.90;;;;;;;1.54;100.00;97768.13;4976727;28;20034;-86
2022/01/15 03:23:27;;;;;;;115.25;51.50;;;;;;;1.68;100.00;97774.88;4985179;28;20036;-83
2022/01/15 03:25:52;;;;;;;113.43;51.20;;;;;;;1.57;100.00;97781.25;4967763;28;20026;-85
2022/01/15 03:28:18;;;;;;;99.55;47.97;;;;;;;1.63;100.00;97773.19;4977671;28;20472;-85
2022/01/15 03:30:43;;;;;;;97.60;44.30;;;;;;;1.68;100.00;97761.69;4987314;28;20035;-85
2022/01/15 03:33:10;;;;;;;95.95;43.50;;;;;;;1.79;100.00;97786.91;4999050;28;20066;-85
2022/01/15 03:35:36;;;;;;;84.78;41.25;;;;;;;1.75;100.00;97771.19;4995741;28;20046;-85
2022/01/15 03:38:02;;;;;;;16.90;9.15;;;;;;;1.98;100.00;97785.56;4962757;28;20066;-85
2022/01/15 03:40:27;;;;;;;43.85;20.02;;;;;;;2.56;100.00;97778.78;4992494;28;20030;-86
2022/01/15 03:42:53;;;;;;;27.98;15.90;;;;;;;2.71;100.00;97788.94;4964065;28;20074;-86
2022/01/15 03:45:19;;;;;;;28.45;12.85;;;;;;;2.74;100.00;97799.41;4960944;28;20037;-86
2022/01/15 03:47:45;;;;;;;32.13;17.10;;;;;;;2.78;100.00;97790.50;5002834;28;20046;-85
2022/01/15 03:50:12;;;;;;;35.55;18.23;;;;;;;2.85;100.00;97780.66;4991170;28;20031;-85
2022/01/15 03:52:38;;;;;;;35.50;16.52;;;;;;;2.94;100.00;97790.97;4994786;28;20482;-85
2022/01/15 03:55:06;;;;;;;31.70;16.15;;;;;;;3.16;100.00;97814.09;5005512;28;20030;-85
2022/01/15 03:57:32;;;;;;;25.73;13.10;;;;;;;3.16;100.00;97800.00;4968201;28;20121;-85
2022/01/15 03:59:59;;;;;;;37.97;18.08;;;;;;;3.13;100.00;97793.06;4984090;28;20089;-86
2022/01/15 04:02:24;;;;;;;33.30;15.80;;;;;;;3.32;100.00;97811.88;4982862;28;20109;-85
2022/01/15 04:04:50;;;;;;;28.75;14.25;;;;;;;3.36;100.00;97804.69;4984526;28;20105;-85
2022/01/15 04:07:16;;;;;;;24.73;12.65;;;;;;;3.49;100.00;97804.31;4999006;28;20035;-85
2022/01/15 04:09:41;;;;;;;20.65;10.85;;;;;;;3.66;100.00;97817.03;4964855;28;20035;-85
2022/01/15 04:12:07;;;;;;;19.02;10.85;;;;;;;3.73;100.00;97803.56;4964163;28;20037;-85
2022/01/15 04:14:33;;;;;;;24.98;11.00;;;;;;;3.75;99.64;97800.88;4960759;28;20022;-85
2022/01/15 04:16:58;;;;;;;20.00;10.10;;;;;;;3.84;99.39;97814.66;4984100;28;20030;-86
2022/01/15 04:19:25;;;;;;;24.70;11.93;;;;;;;4.01;98.58;97822.09;4981901;28;20026;-86
2022/01/15 04:21:50;;;;;;;30.38;14.98;;;;;;;4.12;97.56;97845.59;4957612;28;20410;-76
2022/01/15 04:24:17;;;;;;;32.50;15.82;;;;;;;4.16;97.65;97844.53;4987904;28;20026;-76
2022/01/15 04:26:43;;;;;;;35.65;18.90;;;;;;;4.16;98.20;97855.13;4981368;28;20047;-76
2022/01/15 04:29:09;;;;;;;24.40;11.80;;;;;;;4.25;97.12;97863.66;5004795;28;20081;-75
2022/01/15 04:31:56;;;;;;;31.65;16.13;;;;;;;4.29;96.19;97853.84;5004462;28;20033;-75
2022/01/15 04:34:25;;;;;;;28.75;14.10;;;;;;;4.36;96.02;97877.44;4980515;28;20042;-74
2022/01/15 04:36:53;;;;;;;15.70;8.07;;;;;;;4.40;96.17;97880.81;5000959;28;20029;-75
2022/01/15 04:39:19;;;;;;;31.67;16.70;;;;;;;4.24;96.52;97882.25;4992080;28;20077;-74
2022/01/15 04:41:45;;;;;;;26.48;12.95;;;;;;;4.24;96.84;97890.19;4983873;28;20030;-78
2022/01/15 04:44:11;;;;;;;24.65;12.23;;;;;;;4.32;96.14;97896.09;4984062;28;20022;-85
2022/01/15 04:46:38;;;;;;;10.80;6.15;;;;;;;4.40;95.35;97891.41;4967532;28;20034;-85
2022/01/15 04:49:05;;;;;;;14.13;7.47;;;;;;;4.53;94.70;97899.84;4982938;28;20425;-85
2022/01/15 04:51:31;;;;;;;14.80;7.90;;;;;;;4.60;94.06;97896.94;4989688;28;20478;-84
2022/01/15 04:53:57;;;;;;;16.40;8.60;;;;;;;4.61;93.68;97896.06;4985393;28;20387;-84
2022/01/15 04:56:23;;;;;;;11.48;6.10;;;;;;;4.61;93.47;97880.16;4992204;28;20141;-84
2022/01/15 04:58:49;;;;;;;14.73;6.90;;;;;;;4.63;93.10;97874.78;4987940;28;20100;-85
2022/01/15 05:01:15;;;;;;;15.10;8.05;;;;;;;4.67;92.73;97881.72;5004272;28;20026;-85
2022/01/15 05:03:41;;;;;;;12.90;6.88;;;;;;;4.75;92.67;97879.69;4999139;28;20030;-85
2022/01/15 05:06:06;;;;;;;13.00;6.78;;;;;;;4.73;92.30;97879.75;4969737;28;20034;-85
2022/01/15 05:08:32;;;;;;;11.98;6.78;;;;;;;4.69;91.75;97880.75;4990294;28;20046;-85
2022/01/15 05:11:00;;;;;;;11.43;6.07;;;;;;;4.78;91.96;97884.88;5009196;28;20037;-85
2022/01/15 05:13:29;;;;;;;13.93;6.82;;;;;;;4.85;91.05;97892.56;4968345;28;20038;-85
2022/01/15 05:15:55;;;;;;;11.98;5.55;;;;;;;4.88;89.67;97891.59;5000166;28;20034;-85
2022/01/15 05:18:21;;;;;;;10.45;5.95;;;;;;;4.98;89.20;97898.34;5007673;28;20037;-84
2022/01/15 05:20:47;;;;;;;13.68;7.03;;;;;;;5.02;88.93;97899.94;4994791;28;20026;-85
2022/01/15 05:23:13;;;;;;;12.38;6.40;;;;;;;5.09;88.79;97916.50;4986865;28;20027;-86
2022/01/15 05:25:39;;;;;;;15.60;6.75;;;;;;;5.06;88.23;97916.59;4991127;28;20034;-86
2022/01/15 05:28:05;;;;;;;14.45;7.43;;;;;;;5.08;87.72;97912.97;4956833;28;20026;-85
2022/01/15 05:30:31;;;;;;;14.70;7.15;;;;;;;5.04;88.03;97918.47;4997280;28;20535;-85
2022/01/15 05:32:58;;;;;;;13.85;7.15;;;;;;;5.05;87.13;97921.03;4976129;28;20503;-85
2022/01/15 05:35:26;;;;;;;16.73;8.32;;;;;;;5.02;86.94;97926.44;5001513;28;20034;-84
2022/01/15 05:37:55;;;;;;;15.07;7.65;;;;;;;5.13;86.07;97937.56;4965660;28;20058;-79
2022/01/15 05:40:21;;;;;;;19.83;9.50;;;;;;;5.08;86.33;97946.56;4985439;28;20058;-76
2022/01/15 05:42:47;;;;;;;16.50;8.85;;;;;;;5.10;86.47;97945.63;5003515;28;20030;-80
2022/01/15 05:45:13;;;;;;;17.95;10.00;;;;;;;5.07;86.73;97956.34;4975928;28;20101;-81
2022/01/15 05:47:39;;;;;;;18.42;10.35;;;;;;;5.06;86.33;97974.94;4992907;28;20434;-81
2022/01/15 05:50:05;;;;;;;24.38;12.15;;;;;;;5.03;86.30;97967.06;4974356;28;20022;-75
2022/01/15 05:52:30;;;;;;;24.65;12.45;;;;;;;5.06;86.51;97974.94;4980064;28;20031;-84
2022/01/15 05:54:56;;;;;;;23.23;12.40;;;;;;;4.99;86.87;97968.09;4973914;28;20435;-86
2022/01/15 05:57:22;;;;;;;31.80;15.98;;;;;;;5.00;87.17;97959.22;5000453;28;20026;-86
2022/01/15 05:59:51;;;;;;;23.73;13.25;;;;;;;5.02;86.82;97968.84;4958467;28;20029;-86
2022/01/15 06:02:19;;;;;;;31.83;16.15;;;;;;;5.01;86.52;97963.63;4995754;28;20027;-87
2022/01/15 06:04:44;;;;;;;28.20;14.18;;;;;;;5.06;86.72;97975.81;4972588;28;20022;-87
2022/01/15 06:07:10;;;;;;;33.50;17.42;;;;;;;4.99;86.84;97987.50;4984009;28;20430;-86
2022/01/15 06:09:36;;;;;;;44.83;21.20;;;;;;;5.10;86.40;97987.19;4983772;28;20031;-85
2022/01/15 06:12:01;;;;;;;28.98;16.10;;;;;;;5.04;86.32;97971.47;4990112;28;20097;-87
2022/01/15 06:14:29;;;;;;;33.47;17.17;;;;;;;4.97;86.18;97967.28;4961452;28;20049;-86
2022/01/15 06:16:55;;;;;;;49.67;24.35;;;;;;;5.03;86.50;97978.56;4993303;28;20037;-86
2022/01/15 06:19:21;;;;;;;65.53;29.35;;;;;;;5.07;86.78;97981.97;4994720;28;20113;-87
2022/01/15 06:21:46;;;;;;;44.33;21.20;;;;;;;5.00;86.33;97976.00;4994927;28;20486;-85
2022/01/15 06:24:12;;;;;;;41.78;19.48;;;;;;;5.06;85.72;98004.09;4966869;28;20038;-85
2022/01/15 06:26:37;;;;;;;29.17;14.27;;;;;;;5.09;85.74;98006.63;4992161;28;20093;-86
2022/01/15 06:29:03;;;;;;;29.23;13.80;;;;;;;5.08;85.83;98000.47;4970640;28;20026;-86
2022/01/15 06:31:30;;;;;;;26.73;12.73;;;;;;;5.11;85.37;98005.66;4997721;28;20413;-86
2022/01/15 06:34:00;;;;;;;18.58;10.35;;;;;;;5.19;84.96;98019.56;4986886;28;20027;-86
2022/01/15 06:36:25;;;;;;;18.20;9.52;;;;;;;5.15;84.37;98019.69;4978839;28;20034;-86
2022/01/15 06:38:51;;;;;;;20.13;9.30;;;;;;;5.24;84.46;98030.00;5002460;28;20466;-85
2022/01/15 06:41:16;;;;;;;28.67;13.48;;;;;;;5.26;84.19;98030.84;4972169;28;20034;-86
2022/01/15 06:43:42;;;;;;;30.73;13.05;;;;;;;5.24;84.32;98035.31;4978448;28;20034;-86
2022/01/15 06:46:08;;;;;;;23.27;13.02;;;;;;;5.28;84.35;98035.16;4970463;28;20053;-86
2022/01/15 06:48:34;;;;;;;24.23;14.13;;;;;;;5.27;83.78;98037.84;4977978;28;20058;-86
2022/01/15 06:50:59;;;;;;;21.05;10.75;;;;;;;5.14;84.05;98039.16;4969370;28;20041;-87
2022/01/15 06:53:25;;;;;;;20.98;11.95;;;;;;;5.25;84.27;98045.88;4994290;28;20034;-87
2022/01/15 06:55:52;;;;;;;21.13;12.07;;;;;;;5.32;83.91;98046.53;4962213;28;20513;-86
2022/01/15 06:58:19;;;;;;;22.45;11.75;;;;;;;5.34;83.43;98060.59;4973993;28;20070;-86
2022/01/15 07:00:45;;;;;;;20.50;11.05;;;;;;;5.27;83.19;98043.16;4988849;28;20030;-86
2022/01/15 07:03:10;;;;;;;26.73;13.50;;;;;;;5.36;83.17;98054.31;4974804;28;20030;-85
2022/01/15 07:05:36;;;;;;;51.25;22.77;;;;;;;5.30;82.81;98054.53;4985590;28;20037;-86
2022/01/15 07:08:02;;;;;;;33.78;15.38;;;;;;;5.36;83.19;98069.38;5000899;28;20077;-85
2022/01/15 07:10:28;;;;;;;28.50;14.60;;;;;;;5.33;83.04;98064.16;4960525;28;20109;-86
2022/01/15 07:12:54;;;;;;;25.42;13.98;;;;;;;5.42;83.17;98074.47;4996938;28;20042;-86
2022/01/15 07:15:20;;;;;;;21.75;11.27;;;;;;;5.33;82.84;98075.66;4964016;28;20069;-85
2022/01/15 07:17:46;;;;;;;26.20;12.50;;;;;;;5.32;83.24;98086.31;4983745;28;20101;-85
2022/01/15 07:20:13;;;;;;;23.02;11.70;;;;;;;5.31;83.44;98080.16;4972113;28;20030;-86
2022/01/15 07:22:39;;;;;;;24.25;13.73;;;;;;;5.35;83.03;98094.19;4966642;28;20034;-86
2022/01/15 07:25:05;;;;;;;31.48;16.50;;;;;;;5.31;82.75;98089.88;4958494;28;20034;-87
2022/01/15 07:27:31;;;;;;;19.98;11.50;;;;;;;5.20;83.33;98090.22;4993384;28;20479;-84
2022/01/15 07:29:57;;;;;;;27.58;13.75;;;;;;;5.32;83.34;98099.59;4993640;28;20037;-86
2022/01/15 07:32:24;;;;;;;26.60;13.15;;;;;;;5.38;83.05;98102.03;4966993;28;20057;-87
2022/01/15 07:34:49;;;;;;;22.10;12.10;;;;;;;5.33;83.17;98107.47;4985439;28;20125;-87
2022/01/15 07:37:15;;;;;;;71.30;34.75;;;;;;;5.17;84.40;98097.44;4976590;28;20057;-86
2022/01/15 07:39:42;;;;;;;47.42;22.13;;;;;;;5.06;84.15;98091.56;4997072;28;20053;-85
2022/01/15 07:42:08;;;;;;;97.20;39.58;;;;;;;5.12;86.59;98118.78;4988910;28;20494;-86
2022/01/15 07:44:34;;;;;;;81.97;33.75;;;;;;;5.20;86.58;98126.50;4960372;28;20096;-86
2022/01/15 07:47:00;;;;;;;42.42;20.08;;;;;;;5.20;84.78;98124.69;4969261;28;20517;-86
2022/01/15 07:49:25;;;;;;;41.30;19.42;;;;;;;5.20;84.31;98126.50;4987582;28;20133;-87
2022/01/15 07:51:51;;;;;;;38.97;17.17;;;;;;;5.32;82.93;98142.03;4990826;28;20045;-86
2022/01/15 07:54:17;;;;;;;34.25;15.93;;;;;;;5.35;82.12;98140.13;5002104;28;20103;-87
2022/01/15 07:56:42;;;;;;;31.10;14.85;;;;;;;5.35;82.64;98136.63;4967359;28;20321;-86
2022/01/15 07:59:08;;;;;;;33.60;15.35;;;;;;;5.41;81.95;98141.72;4981277;28;20015;-86
2022/01/15 08:01:33;;;;;;;23.15;13.50;;;;;;;5.48;81.99;98143.25;5002690;28;20032;-86
2022/01/15 08:03:59;;;;;;;30.08;13.13;;;;;;;5.44;82.15;98129.22;4989832;28;20022;-86
2022/01/15 08:06:24;;;;;;;22.95;12.25;;;;;;;5.50;81.50;98146.72;4987050;28;20032;-86
2022/01/15 08:08:50;;;;;;;27.80;15.27;;;;;;;5.45;82.93;98153.94;4967527;28;20050;-85
2022/01/15 08:11:16;;;;;;;25.73;14.00;;;;;;;5.44;81.39;98152.25;5000096;28;20030;-87
2022/01/15 08:13:41;;;;;;;37.05;18.90;;;;;;;5.41;82.18;98149.69;4997859;28;20107;-87
2022/01/15 08:16:07;;;;;;;38.47;20.13;;;;;;;5.30;82.59;98151.78;4990648;28;20019;-89
2022/01/15 08:18:33;;;;;;;46.65;22.65;;;;;;;5.45;82.81;98181.34;4966103;28;20026;-88
2022/01/15 08:20:59;;;;;;;48.30;23.73;;;;;;;5.31;80.83;98182.72;4975104;28;20177;-87
2022/01/15 08:23:24;;;;;;;47.65;24.50;;;;;;;5.38;81.27;98179.81;4987319;28;20094;-89
2022/01/15 08:29:52;;;;;;;39.38;20.60;;;;;;;5.40;80.37;98193.03;5003403;28;20076;-90
2022/01/15 08:32:18;;;;;;;47.03;24.40;;;;;;;5.14;80.58;98148.75;5004269;28;20036;-88
2022/01/15 08:34:44;;;;;;;56.55;27.35;;;;;;;5.13;79.54;98168.25;4998993;28;20486;-86
2022/01/15 08:37:19;;;;;;;50.00;24.15;;;;;;;5.20;79.53;98196.28;4963121;28;20026;-86
2022/01/15 08:39:45;;;;;;;65.15;32.13;;;;;;;5.35;78.87;98194.97;4988793;28;20026;-89
2022/01/15 08:42:10;;;;;;;95.05;44.22;;;;;;;5.34;79.39;98190.56;4979744;28;20022;-88
2022/01/15 08:44:40;;;;;;;76.75;39.40;;;;;;;5.51;77.43;98211.28;4964680;28;20513;-88
2022/01/15 08:47:06;;;;;;;261.23;135.75;;;;;;;5.51;76.44;98205.97;4978443;28;20026;-87
2022/01/15 08:49:32;;;;;;;168.07;77.28;;;;;;;5.42;76.52;98207.09;4995732;28;20043;-87
2022/01/15 08:51:57;;;;;;;218.05;99.13;;;;;;;5.44;78.42;98215.91;4988682;28;20022;-88
2022/01/15 08:54:23;;;;;;;76.80;37.22;;;;;;;5.28;76.64;98204.91;4977747;28;20031;-87
2022/01/15 08:56:48;;;;;;;114.00;56.15;;;;;;;5.28;78.93;98201.38;4968936;28;20482;-88
2022/01/15 08:59:14;;;;;;;100.40;50.33;;;;;;;5.45;78.56;98222.94;4964525;28;20011;-88
2022/01/15 09:01:40;;;;;;;86.43;44.35;;;;;;;5.47;79.28;98221.13;4977414;28;20035;-88
2022/01/15 09:04:05;;;;;;;96.32;50.58;;;;;;;5.33;79.65;98207.38;4960974;28;20023;-88
2022/01/15 09:06:31;;;;;;;70.18;33.67;;;;;;;5.27;77.91;98219.06;5002134;28;20113;-87
2022/01/15 09:08:56;;;;;;;85.10;39.92;;;;;;;5.39;77.89;98213.38;4974500;28;20057;-88
2022/01/15 09:11:22;;;;;;;71.63;34.20;;;;;;;5.45;78.24;98217.63;4968941;28;20023;-87
2022/01/15 09:13:48;;;;;;;57.63;27.67;;;;;;;5.56;77.78;98210.22;4979582;28;20569;-88
2022/01/15 09:16:14;;;;;;;65.10;31.20;;;;;;;5.62;78.33;98215.34;4987866;28;20563;-87
2022/01/15 09:18:39;;;;;;;52.55;28.40;;;;;;;5.65;78.83;98227.63;5003166;28;20057;-87
2022/01/15 09:21:05;;;;;;;43.90;23.27;;;;;;;5.67;78.62;98231.09;4977619;28;20046;-87
2022/01/15 09:23:31;;;;;;;62.55;31.05;;;;;;;5.71;77.12;98224.78;4971772;28;20030;-88
2022/01/15 09:25:58;;;;;;;63.88;32.13;;;;;;;5.76;76.76;98213.09;4979929;28;20115;-88
2022/01/15 09:31:10;;;;;;;67.28;33.63;;;;;;;5.80;72.36;98224.47;4995629;28;20029;-87
2022/01/15 09:33:35;;;;;;;75.80;38.15;;;;;;;5.65;75.46;98230.28;4992946;28;20098;-86
2022/01/15 09:36:01;;;;;;;98.20;47.00;;;;;;;5.76;75.87;98220.19;4985292;28;20073;-86
2022/01/15 09:38:26;;;;;;;105.85;50.47;;;;;;;5.85;75.33;98222.53;4974440;28;20125;-87
2022/01/15 09:40:54;;;;;;;214.95;104.07;;;;;;;5.98;75.03;98222.13;4983262;28;20101;-87
2022/01/15 09:43:20;;;;;;;214.73;105.45;;;;;;;5.99;74.13;98210.59;4961657;28;20125;-87
2022/01/15 09:49:10;;;;;;;167.32;77.18;;;;;;;5.97;75.01;98215.06;4990336;28;20524;-86
2022/01/15 09:51:36;;;;;;;265.55;97.97;;;;;;;5.70;75.24;98191.19;4965730;28;20065;-87
2022/01/15 09:54:02;;;;;;;279.35;103.68;;;;;;;5.84;74.87;98197.81;5012593;28;20484;-89
2022/01/15 09:56:28;;;;;;;141.82;57.47;;;;;;;6.03;72.02;98210.50;4988653;28;20034;-89
2022/01/15 09:58:54;;;;;;;111.38;49.20;;;;;;;5.91;71.98;98215.28;5013061;28;20034;-88
2022/01/15 10:01:20;;;;;;;111.85;50.58;;;;;;;5.93;72.29;98210.81;4995938;28;20505;-87
2022/01/15 10:03:46;;;;;;;76.70;34.95;;;;;;;6.00;70.94;98199.03;4999042;28;20569;-88
2022/01/15 10:06:12;;;;;;;107.32;45.25;;;;;;;6.07;71.56;98209.47;4963467;28;20034;-88
2022/01/15 10:08:37;;;;;;;106.65;45.85;;;;;;;6.06;71.59;98199.78;4992604;28;20038;-87
2022/01/15 10:11:11;;;;;;;66.30;32.88;;;;;;;6.18;70.51;98207.34;4998602;28;20089;-87
2022/01/15 10:13:46;;;;;;;64.13;29.90;;;;;;;6.24;71.00;98209.78;4994433;28;20026;-88
2022/01/15 10:16:15;;;;;;;77.65;39.05;;;;;;;6.21;71.22;98201.91;4997759;28;20026;-86
2022/01/15 10:18:44;;;;;;;100.28;50.15;;;;;;;6.51;70.42;98203.50;5000999;28;20034;-87
2022/01/15 10:21:15;;;;;;;85.75;43.70;;;;;;;6.69;69.55;98205.50;4973439;28;20117;-86
2022/01/15 10:23:52;;;;;;;137.13;61.45;;;;;;;6.80;70.34;98205.97;4969785;28;20049;-87
2022/01/15 10:26:26;;;;;;;185.05;87.55;;;;;;;7.29;68.20;98189.03;5009516;28;20027;-87
2022/01/15 10:29:03;;;;;;;160.15;77.82;;;;;;;7.78;66.09;98181.78;4978077;28;20031;-87
2022/01/15 10:31:38;;;;;;;124.97;60.05;;;;;;;8.66;63.29;98176.25;4978539;28;20113;-85
2022/01/15 10:34:24;;;;;;;86.22;45.35;;;;;;;9.77;58.05;98167.44;4978450;28;20077;-86
2022/01/15 10:36:50;;;;;;;38.17;20.63;;;;;;;10.02;54.63;98161.75;4962443;28;20646;-87
2022/01/15 10:39:18;;;;;;;40.78;22.40;;;;;;;9.79;55.35;98149.53;4967178;28;20034;-86
2022/01/15 10:41:44;;;;;;;31.75;17.02;;;;;;;9.97;54.68;98162.91;4990799;28;20026;-88
2022/01/15 10:44:34;;;;;;;25.38;14.43;;;;;;;10.23;54.12;98154.50;4987243;28;20022;-88
2022/01/15 10:47:14;;;;;;;18.35;10.30;;;;;;;10.89;53.17;98144.75;4982244;28;20046;-87
2022/01/15 10:49:40;;;;;;;34.22;15.85;;;;;;;12.41;49.22;98132.47;4990757;28;20038;-86
2022/01/15 10:52:18;;;;;;;20.10;10.82;;;;;;;14.55;44.08;98114.09;4991098;28;20038;-87
2022/01/15 10:55:07;;;;;;;22.30;11.77;;;;;;;14.53;43.07;98105.25;4996526;28;20039;-87
2022/01/15 10:57:34;;;;;;;44.03;22.23;;;;;;;15.50;41.74;98111.84;5003935;28;20062;-87
2022/01/15 11:00:14;;;;;;;26.73;15.80;;;;;;;16.10;39.73;98103.72;4976800;28;20049;-86
2022/01/15 11:02:51;;;;;;;23.65;14.93;;;;;;;16.90;37.74;98091.25;4991923;28;20465;-86
2022/01/15 11:05:36;;;;;;;30.33;15.27;;;;;;;16.48;36.93;98084.63;4968446;28;20038;-85
2022/01/15 11:08:25;;;;;;;24.83;13.40;;;;;;;16.36;38.53;98095.50;4982191;28;20032;-85
2022/01/15 11:11:02;;;;;;;25.42;14.93;;;;;;;16.47;37.32;98088.28;4985235;28;20041;-86
2022/01/15 11:13:40;;;;;;;24.33;14.57;;;;;;;15.94;38.06;98083.38;5007154;28;20030;-89
2022/01/15 11:16:12;;;;;;;80.10;45.08;;;;;;;17.07;36.51;98088.03;4971672;28;20061;-86
2022/01/15 11:18:40;;;;;;;36.63;22.02;;;;;;;18.03;34.74;98070.25;4977753;28;20413;-83
2022/01/15 11:21:15;;;;;;;23.63;16.38;;;;;;;18.44;34.54;98074.88;5002093;28;20486;-87
2022/01/15 11:23:42;;;;;;;26.65;14.82;;;;;;;17.57;35.35;98081.31;4969047;28;20030;-86
2022/01/15 11:26:10;;;;;;;28.38;17.27;;;;;;;18.19;34.28;98075.22;4971625;28;20030;-87
2022/01/15 11:28:36;;;;;;;26.23;16.98;;;;;;;19.24;33.17;98072.41;4967649;28;20034;-85
2022/01/15 11:31:11;;;;;;;25.17;15.18;;;;;;;18.92;32.64;98057.13;4992972;28;20100;-87
2022/01/15 11:33:45;;;;;;;19.67;12.68;;;;;;;18.84;32.95;98073.19;5006417;28;20038;-83
2022/01/15 11:36:33;;;;;;;71.18;38.92;;;;;;;19.05;32.33;98072.31;5009757;28;20544;-79
2022/01/15 11:39:06;;;;;;;22.15;12.68;;;;;;;18.94;31.90;98047.00;5001174;28;20039;-82
2022/01/15 11:41:31;;;;;;;19.05;11.02;;;;;;;17.44;34.00;98068.88;4990444;28;20804;-81
2022/01/15 11:44:06;;;;;;;24.42;16.27;;;;;;;18.09;33.35;98058.91;4989932;28;20116;-80
2022/01/15 11:46:48;;;;;;;24.25;13.15;;;;;;;18.11;33.44;98065.06;4999927;28;20166;-85
2022/01/15 11:49:44;;;;;;;26.27;17.75;;;;;;;18.91;32.20;98066.25;4993645;28;20042;-87
2022/01/15 11:52:11;;;;;;;29.13;18.08;;;;;;;18.31;33.42;98072.34;4976137;28;20062;-87